createdAt,value
2023-01-03T00:01:29.184Z,13.10
2023-01-03T00:03:02.326Z,16.48
2023-01-03T00:04:35.614Z,15.23
2023-01-03T00:06:15.697Z,14.65
2023-01-03T00:07:51.553Z,13.48
2023-01-03T00:09:25.734Z,12.80
2023-01-03T00:10:57.998Z,13.77
2023-01-03T00:12:32.351Z,11.63
2023-01-03T00:14:04.738Z,12.60
2023-01-03T00:15:38.699Z,15.23
2023-01-03T00:17:13.668Z,14.52
2023-01-03T00:18:47.519Z,12.45
2023-01-03T00:20:20.984Z,10.48
2023-01-03T00:21:53.568Z,10.38
2023-01-03T00:23:28.204Z,9.85
2023-01-03T00:25:01.434Z,9.40
2023-01-03T00:26:34.438Z,9.02
2023-01-03T00:28:07.771Z,9.10
2023-01-03T00:29:40.987Z,7.82
2023-01-03T00:31:14.409Z,9.10
2023-01-03T00:32:47.971Z,9.40
2023-01-03T00:34:20.168Z,9.18
2023-01-03T00:35:53.350Z,9.23
2023-01-03T00:37:26.515Z,9.15
2023-01-03T00:39:00.651Z,10.80
2023-01-03T00:40:33.937Z,13.80
2023-01-03T00:42:08.326Z,12.88
2023-01-03T00:43:41.694Z,11.50
2023-01-03T00:45:19.225Z,10.90
2023-01-03T00:46:53.047Z,9.00
2023-01-03T00:48:25.553Z,9.45
2023-01-03T00:49:58.669Z,10.48
2023-01-03T00:51:34.676Z,10.27
2023-01-03T00:53:07.798Z,11.25
2023-01-03T00:54:42.451Z,11.73
2023-01-03T00:56:18.179Z,10.77
2023-01-03T00:57:51.568Z,9.60
2023-01-03T00:59:24.719Z,9.02
2023-01-03T01:00:56.933Z,8.35
2023-01-03T01:02:30.352Z,10.00
2023-01-03T01:04:07.058Z,9.35
2023-01-03T01:05:40.244Z,9.43
2023-01-03T01:07:13.588Z,10.55
2023-01-03T01:08:47.555Z,9.00
2023-01-03T01:10:22.530Z,8.02
2023-01-03T01:11:56.214Z,8.45
2023-01-03T01:13:30.110Z,7.32
2023-01-03T01:15:03.378Z,7.32
2023-01-03T01:16:35.896Z,6.97
2023-01-03T01:18:09.195Z,6.70
2023-01-03T01:19:44.981Z,6.40
2023-01-03T01:21:24.200Z,6.50
2023-01-03T01:22:57.702Z,7.18
2023-01-03T01:24:31.200Z,6.72
2023-01-03T01:26:10.080Z,8.10
2023-01-03T01:27:43.296Z,7.57
2023-01-03T01:29:16.744Z,7.65
2023-01-03T01:30:49.898Z,7.72
2023-01-03T01:32:23.116Z,7.53
2023-01-03T01:33:57.840Z,8.00
2023-01-03T01:35:31.330Z,6.75
2023-01-03T01:37:04.931Z,7.45
2023-01-03T01:38:37.367Z,7.20
2023-01-03T01:40:11.816Z,7.82
2023-01-03T01:42:05.739Z,7.60
2023-01-03T01:44:14.397Z,6.57
2023-01-03T01:45:48.423Z,7.78
2023-01-03T01:47:28.021Z,9.80
2023-01-03T01:49:04.194Z,10.23
2023-01-03T01:50:43.319Z,9.88
2023-01-03T01:52:18.344Z,9.70
2023-01-03T01:53:55.584Z,9.65
2023-01-03T01:55:32.913Z,18.65
2023-01-03T01:57:13.690Z,22.35
2023-01-03T01:58:50.157Z,19.38
2023-01-03T02:00:22.674Z,17.02
2023-01-03T02:01:56.411Z,17.05
2023-01-03T02:03:31.816Z,18.25
2023-01-03T02:05:07.528Z,14.70
2023-01-03T02:06:41.807Z,11.82
2023-01-03T02:08:15.098Z,15.35
2023-01-03T02:09:49.894Z,12.38
2023-01-03T02:11:34.867Z,10.98
2023-01-03T02:13:13.972Z,9.35
2023-01-03T02:15:05.528Z,9.48
2023-01-03T02:16:52.971Z,8.77
2023-01-03T02:18:42.946Z,9.65
2023-01-03T02:20:26.986Z,10.65
2023-01-03T02:22:28.649Z,9.75
2023-01-03T02:24:31.811Z,12.25
2023-01-03T02:26:43.164Z,14.02
2023-01-03T02:28:57.696Z,16.90
2023-01-03T02:30:38.062Z,21.55
2023-01-03T02:32:14.790Z,21.75
2023-01-03T02:33:55.558Z,20.73
2023-01-03T02:35:36.777Z,11.02
2023-01-03T02:37:18.899Z,11.23
2023-01-03T02:38:58.253Z,9.60
2023-01-03T02:40:38.324Z,10.43
2023-01-03T02:42:34.552Z,9.52
2023-01-03T02:44:17.104Z,9.63
2023-01-03T02:46:07.719Z,9.93
2023-01-03T02:47:47.925Z,9.00
2023-01-03T02:49:27.430Z,9.93
2023-01-03T02:51:03.668Z,10.07
2023-01-03T02:52:38.305Z,8.75
2023-01-03T02:54:16.770Z,9.23
2023-01-03T02:55:53.684Z,10.40
2023-01-03T02:57:31.423Z,9.55
2023-01-03T02:59:09.970Z,10.43
2023-01-03T03:00:48.933Z,9.95
2023-01-03T03:02:26.264Z,11.18
2023-01-03T03:04:02.535Z,8.82
2023-01-03T03:05:40.582Z,8.68
2023-01-03T03:07:19.853Z,8.00
2023-01-03T03:08:53.543Z,8.60
2023-01-03T03:10:45.447Z,8.20
2023-01-03T03:12:36.601Z,10.05
2023-01-03T03:14:15.408Z,9.60
2023-01-03T03:15:55.460Z,9.32
2023-01-03T03:17:32.869Z,8.68
2023-01-03T03:19:40.197Z,9.05
2023-01-03T03:21:33.348Z,8.77
2023-01-03T03:23:27.807Z,9.38
2023-01-03T03:25:05.731Z,8.65
2023-01-03T03:26:44.033Z,12.45
2023-01-03T03:28:37.845Z,12.70
2023-01-03T03:30:15.587Z,11.55
2023-01-03T03:31:51.305Z,11.50
2023-01-03T03:33:29.045Z,10.85
2023-01-03T03:35:05.800Z,12.18
2023-01-03T03:36:45.422Z,9.10
2023-01-03T03:38:23.241Z,9.98
2023-01-03T03:40:14.531Z,8.75
2023-01-03T03:42:07.750Z,14.90
2023-01-03T03:44:05.013Z,10.45
2023-01-03T03:45:43.762Z,11.52
2023-01-03T03:47:25.508Z,10.63
2023-01-03T03:49:24.555Z,10.65
2023-01-03T03:51:03.301Z,10.75
2023-01-03T03:52:37.956Z,10.77
2023-01-03T03:54:14.549Z,8.63
2023-01-03T03:55:53.861Z,8.10
2023-01-03T03:57:30.121Z,9.80
2023-01-03T03:59:07.886Z,8.50
2023-01-03T04:00:44.019Z,9.68
2023-01-03T04:02:19.145Z,10.02
2023-01-03T04:03:56.047Z,8.88
2023-01-03T04:05:35.752Z,18.17
2023-01-03T04:07:09.699Z,44.10
2023-01-03T04:08:43.828Z,12.85
2023-01-03T04:10:20.618Z,24.65
2023-01-03T04:11:53.823Z,9.82
2023-01-03T04:13:26.170Z,8.90
2023-01-03T04:14:59.403Z,9.43
2023-01-03T04:16:31.840Z,9.30
2023-01-03T04:18:05.419Z,9.35
2023-01-03T04:19:37.767Z,9.95
2023-01-03T04:21:17.174Z,9.18
2023-01-03T04:22:54.241Z,8.93
2023-01-03T04:24:26.892Z,9.30
2023-01-03T04:26:00.478Z,9.98
2023-01-03T04:27:33.995Z,11.15
2023-01-03T04:29:07.406Z,13.23
2023-01-03T04:30:40.741Z,17.77
2023-01-03T04:32:34.213Z,19.63
2023-01-03T04:34:07.468Z,18.25
2023-01-03T04:35:41.003Z,22.45
2023-01-03T04:37:16.221Z,28.05
2023-01-03T04:38:49.718Z,32.85
2023-01-03T04:40:21.907Z,42.13
2023-01-03T04:41:55.270Z,42.05
2023-01-03T04:43:46.204Z,60.95
2023-01-03T04:45:18.474Z,47.15
2023-01-03T04:46:53.229Z,48.88
2023-01-03T04:48:25.855Z,38.03
2023-01-03T04:49:59.171Z,34.78
2023-01-03T04:51:32.371Z,39.70
2023-01-03T04:53:07.685Z,36.95
2023-01-03T04:54:41.157Z,37.45
2023-01-03T04:56:14.520Z,37.35
2023-01-03T04:57:47.636Z,38.15
2023-01-03T04:59:20.731Z,42.78
2023-01-03T05:00:59.349Z,37.38
2023-01-03T05:02:32.719Z,40.17
2023-01-03T05:04:06.193Z,33.63
2023-01-03T05:05:38.794Z,32.38
2023-01-03T05:07:12.291Z,35.85
2023-01-03T05:08:47.881Z,38.33
2023-01-03T05:10:20.949Z,41.17
2023-01-03T05:11:54.130Z,24.05
2023-01-03T05:13:27.374Z,27.90
2023-01-03T05:15:00.576Z,25.77
2023-01-03T05:16:33.760Z,22.00
2023-01-03T05:18:06.269Z,25.20
2023-01-03T05:20:00.358Z,23.10
2023-01-03T05:21:47.488Z,19.77
2023-01-03T05:23:38.205Z,16.33
2023-01-03T05:25:30.471Z,18.70
2023-01-03T05:27:06.737Z,17.38
2023-01-03T05:28:40.438Z,15.68
2023-01-03T05:30:14.240Z,16.05
2023-01-03T05:31:48.015Z,20.70
2023-01-03T05:33:21.349Z,36.47
2023-01-03T05:34:54.647Z,36.95
2023-01-03T05:36:28.277Z,32.92
2023-01-03T05:38:01.409Z,30.05
2023-01-03T05:39:34.657Z,26.17
2023-01-03T05:41:09.683Z,21.70
2023-01-03T05:42:41.878Z,21.08
2023-01-03T05:44:15.402Z,20.38
2023-01-03T05:45:51.829Z,18.98
2023-01-03T05:47:24.326Z,21.55
2023-01-03T05:48:57.481Z,22.15
2023-01-03T05:50:31.611Z,20.90
2023-01-03T05:52:05.243Z,22.45
2023-01-03T05:53:38.563Z,26.20
2023-01-03T05:55:12.588Z,30.45
2023-01-03T05:56:47.628Z,23.48
2023-01-03T05:58:21.018Z,22.70
2023-01-03T05:59:54.120Z,18.90
2023-01-03T06:01:28.624Z,21.23
2023-01-03T06:03:02.206Z,23.58
2023-01-03T06:04:35.517Z,28.17
2023-01-03T06:06:09.845Z,23.77
2023-01-03T06:07:42.913Z,19.73
2023-01-03T06:09:16.192Z,20.05
2023-01-03T06:10:49.677Z,19.98
2023-01-03T06:12:24.400Z,19.85
2023-01-03T06:13:57.533Z,24.63
2023-01-03T06:15:31.313Z,25.42
2023-01-03T06:17:22.104Z,20.15
2023-01-03T06:18:59.069Z,24.52
2023-01-03T06:20:32.408Z,72.32
2023-01-03T06:22:10.538Z,48.53
2023-01-03T06:23:47.722Z,21.02
2023-01-03T06:25:19.830Z,31.02
2023-01-03T06:26:52.992Z,23.55
2023-01-03T14:32:50.861Z,13.95
2023-01-03T14:34:31.250Z,15.68
2023-01-03T14:36:06.530Z,15.57
2023-01-03T14:37:47.927Z,20.63
2023-01-03T14:39:23.923Z,13.70
2023-01-03T14:40:58.204Z,8.77
2023-01-03T14:42:31.967Z,10.00
2023-01-03T14:44:08.150Z,7.88
2023-01-03T14:45:42.822Z,7.43
2023-01-03T14:47:18.717Z,11.05
2023-01-03T14:48:59.460Z,10.07
2023-01-03T14:50:36.018Z,6.00
2023-01-03T14:52:15.993Z,7.68
2023-01-03T14:53:49.570Z,26.70
2023-01-03T14:55:27.338Z,16.33
2023-01-03T14:57:01.868Z,14.85
2023-01-03T14:58:39.996Z,10.18
2023-01-03T15:02:42.172Z,8.30
2023-01-03T15:04:19.422Z,5.60
2023-01-03T15:05:55.645Z,8.23
2023-01-03T15:07:33.265Z,9.95
2023-01-03T15:09:22.716Z,11.93
2023-01-03T15:11:00.168Z,65.05
2023-01-03T15:12:36.219Z,18.67
2023-01-03T15:14:14.433Z,15.65
2023-01-03T15:15:54.654Z,9.55
2023-01-03T15:17:28.997Z,13.57
2023-01-03T15:19:08.797Z,16.58
2023-01-03T15:20:46.301Z,17.30
2023-01-03T15:22:23.057Z,16.85
2023-01-03T15:23:57.682Z,14.68
2023-01-03T15:25:35.871Z,19.98
2023-01-03T15:27:48.870Z,28.77
2023-01-03T15:29:23.961Z,15.20
2023-01-03T15:31:01.706Z,19.35
2023-01-03T15:32:46.752Z,22.30
2023-01-03T15:34:22.968Z,18.45
2023-01-03T15:35:58.623Z,22.65
2023-01-03T15:37:31.889Z,27.50
2023-01-03T15:39:09.927Z,23.63
2023-01-03T15:40:44.734Z,21.38
2023-01-03T15:42:48.999Z,19.33
2023-01-03T15:44:29.296Z,17.70
2023-01-03T15:46:05.597Z,17.27
2023-01-03T15:47:39.116Z,21.95
2023-01-03T15:49:16.170Z,19.45
2023-01-03T15:50:51.786Z,19.27
2023-01-03T15:52:27.672Z,20.20
2023-01-03T15:54:00.859Z,26.45
2023-01-03T15:55:33.165Z,60.97
2023-01-03T15:57:16.003Z,20.50
2023-01-03T15:58:51.454Z,18.83
2023-01-03T16:00:26.394Z,21.55
2023-01-03T16:01:59.824Z,30.13
2023-01-03T16:03:34.708Z,27.83
2023-01-03T16:05:12.961Z,29.92
2023-01-03T16:06:52.314Z,23.75
2023-01-03T16:08:30.626Z,25.67
2023-01-03T16:10:03.801Z,34.28
2023-01-03T16:11:38.150Z,26.95
2023-01-03T16:13:14.981Z,23.65
2023-01-03T16:14:50.789Z,25.55
2023-01-03T16:16:28.149Z,21.38
2023-01-03T16:18:01.999Z,22.42
2023-01-03T16:19:35.661Z,27.33
2023-01-03T16:21:09.338Z,27.70
2023-01-03T16:22:55.473Z,27.25
2023-01-03T16:24:35.273Z,24.52
2023-01-03T16:26:12.054Z,24.33
2023-01-03T16:27:45.720Z,25.08
2023-01-03T16:29:19.037Z,31.38
2023-01-03T16:31:00.306Z,36.10
2023-01-03T16:32:34.676Z,37.53
2023-01-03T16:34:15.871Z,40.60
2023-01-03T16:35:49.386Z,57.15
2023-01-03T16:37:23.200Z,76.82
2023-01-03T16:38:56.728Z,57.78
2023-01-03T16:40:34.834Z,45.60
2023-01-03T16:42:13.964Z,46.25
2023-01-03T16:43:48.161Z,61.13
2023-01-03T16:45:21.926Z,66.25
2023-01-03T16:46:55.322Z,57.08
2023-01-03T16:48:38.133Z,73.00
2023-01-03T16:50:17.680Z,53.78
2023-01-03T16:51:57.302Z,41.50
2023-01-03T16:53:36.820Z,40.53
2023-01-03T16:55:17.315Z,31.95
2023-01-03T16:56:52.430Z,31.73
2023-01-03T16:58:26.111Z,28.05
2023-01-03T16:59:59.437Z,26.38
2023-01-03T17:01:33.391Z,22.88
2023-01-03T17:03:07.381Z,25.25
2023-01-03T17:04:40.703Z,37.35
2023-01-03T17:06:35.048Z,41.05
2023-01-03T17:08:18.463Z,40.35
2023-01-03T17:09:53.268Z,37.35
2023-01-03T17:11:27.646Z,145.48
2023-01-03T17:13:10.134Z,45.58
2023-01-03T17:15:11.479Z,40.38
2023-01-03T17:16:45.582Z,35.25
2023-01-03T17:18:20.916Z,28.45
2023-01-03T17:20:09.999Z,27.75
2023-01-03T17:21:51.070Z,28.58
2023-01-03T17:23:25.602Z,28.65
2023-01-03T17:25:01.800Z,29.98
2023-01-03T17:26:37.073Z,27.17
2023-01-03T17:28:12.181Z,28.48
2023-01-03T17:29:45.989Z,24.30
2023-01-03T17:31:24.542Z,49.13
2023-01-03T17:32:58.296Z,51.83
2023-01-03T17:34:33.596Z,36.80
2023-01-03T17:36:12.365Z,20.23
2023-01-03T17:38:23.357Z,33.58
2023-01-03T17:39:40.988Z,31.70
2023-01-03T17:41:18.905Z,21.30
2023-01-03T17:42:55.079Z,15.98
2023-01-03T17:44:29.897Z,32.33
2023-01-03T17:46:24.002Z,27.52
2023-01-03T17:48:15.121Z,22.20
2023-01-03T17:49:48.489Z,27.98
2023-01-03T17:51:23.128Z,41.42
2023-01-03T17:52:56.982Z,39.45
2023-01-03T17:54:32.984Z,38.55
2023-01-03T17:56:06.921Z,38.65
2023-01-03T17:57:41.303Z,60.92
2023-01-03T17:59:15.075Z,107.38
2023-01-03T18:00:50.201Z,85.43
2023-01-03T18:02:26.115Z,76.95
2023-01-03T18:03:59.822Z,64.13
2023-01-03T18:05:33.292Z,50.75
2023-01-03T18:07:06.986Z,49.42
2023-01-03T18:08:42.316Z,46.40
2023-01-03T18:10:17.769Z,45.17
2023-01-03T18:11:51.284Z,29.58
2023-01-03T18:13:27.845Z,22.45
2023-01-03T18:15:01.265Z,18.55
2023-01-03T18:16:36.309Z,25.60
2023-01-03T18:18:15.906Z,18.70
2023-01-03T18:19:49.509Z,21.58
2023-01-03T18:21:25.524Z,21.58
2023-01-03T18:22:59.861Z,17.60
2023-01-03T18:24:33.245Z,38.55
2023-01-03T18:26:09.886Z,23.50
2023-01-03T18:27:50.533Z,21.45
2023-01-03T18:29:24.325Z,18.77
2023-01-03T18:31:01.550Z,16.27
2023-01-03T18:32:36.870Z,15.68
2023-01-03T18:34:11.505Z,21.25
2023-01-03T18:35:49.414Z,20.92
2023-01-03T18:37:31.168Z,18.70
2023-01-03T18:39:08.594Z,16.20
2023-01-03T18:40:43.162Z,19.35
2023-01-03T18:42:34.073Z,20.45
2023-01-03T18:44:08.018Z,19.00
2023-01-03T18:45:44.089Z,21.60
2023-01-03T18:47:17.979Z,17.67
2023-01-03T18:48:53.282Z,25.80
2023-01-03T18:50:31.203Z,23.92
2023-01-03T18:52:05.342Z,32.75
2023-01-03T18:53:42.304Z,23.60
2023-01-03T18:55:21.843Z,40.95
2023-01-03T18:56:57.297Z,29.02
2023-01-03T18:58:38.951Z,28.05
2023-01-03T19:00:18.999Z,29.67
2023-01-03T19:01:53.552Z,28.27
2023-01-03T19:03:32.169Z,27.83
2023-01-03T19:05:07.844Z,75.25
2023-01-03T19:06:45.799Z,18.02
2023-01-03T19:08:24.018Z,18.33
2023-01-03T19:09:58.658Z,20.55
2023-01-03T19:11:37.177Z,14.88
2023-01-03T19:13:26.149Z,17.38
2023-01-03T19:14:59.833Z,10.82
2023-01-03T19:16:37.013Z,13.57
2023-01-03T19:18:11.694Z,12.65
2023-01-03T19:19:45.531Z,16.88
2023-01-03T19:21:22.588Z,16.73
2023-01-03T19:22:57.749Z,22.10
2023-01-03T19:24:39.194Z,18.27
2023-01-03T19:26:26.853Z,20.63
2023-01-03T19:28:03.447Z,19.83
2023-01-03T19:29:39.172Z,23.63
2023-01-03T19:31:13.401Z,36.90
2023-01-03T19:32:51.781Z,25.60
2023-01-03T19:34:26.923Z,25.63
2023-01-03T19:36:00.407Z,27.15
2023-01-03T19:37:35.202Z,23.55
2023-01-03T19:39:09.648Z,50.20
2023-01-03T19:40:45.442Z,62.92
2023-01-03T19:42:39.688Z,34.35
2023-01-03T19:44:13.445Z,24.23
2023-01-03T19:45:47.435Z,29.70
2023-01-03T19:47:21.305Z,29.35
2023-01-03T19:48:54.515Z,29.98
2023-01-03T19:50:30.873Z,36.30
2023-01-03T19:52:04.457Z,39.83
2023-01-03T19:53:39.495Z,36.53
2023-01-03T19:55:13.154Z,35.33
2023-01-03T19:56:48.609Z,70.90
2023-01-03T19:58:25.915Z,69.25
2023-01-03T20:00:03.883Z,64.05
2023-01-03T20:02:22.369Z,57.72
2023-01-03T20:03:39.764Z,42.42
2023-01-03T20:05:18.717Z,40.22
2023-01-03T20:06:52.815Z,37.63
2023-01-03T20:08:26.308Z,51.13
2023-01-03T20:10:01.302Z,43.33
2023-01-03T20:11:35.043Z,44.47
2023-01-03T20:13:08.597Z,41.45
2023-01-03T20:14:44.169Z,41.67
2023-01-03T20:16:19.015Z,38.83
2023-01-03T20:17:54.172Z,41.50
2023-01-03T20:19:27.904Z,33.70
2023-01-03T20:21:05.469Z,31.77
2023-01-03T20:23:04.611Z,33.70
2023-01-03T20:24:56.671Z,33.10
2023-01-03T20:26:36.793Z,41.30
2023-01-03T20:28:18.382Z,39.78
2023-01-03T20:29:54.809Z,39.30
2023-01-03T20:31:31.665Z,48.63
2023-01-03T20:33:05.721Z,46.85
2023-01-03T20:34:39.317Z,47.55
2023-01-03T20:36:22.715Z,48.03
2023-01-03T20:37:59.431Z,59.25
2023-01-03T20:39:36.853Z,59.38
2023-01-03T20:41:13.517Z,54.22
2023-01-03T20:42:48.905Z,47.72
2023-01-03T20:44:22.097Z,44.65
2023-01-03T20:45:58.517Z,45.70
2023-01-03T20:47:31.849Z,34.55
2023-01-03T20:49:06.531Z,32.00
2023-01-03T20:50:39.911Z,23.95
2023-01-03T20:52:16.624Z,26.45
2023-01-03T20:53:54.716Z,20.38
2023-01-03T20:55:29.982Z,27.92
2023-01-03T20:57:03.167Z,25.02
2023-01-03T20:58:38.013Z,24.65
2023-01-03T21:00:25.266Z,32.72
2023-01-03T21:01:58.746Z,40.00
2023-01-03T21:03:32.158Z,34.33
2023-01-03T21:05:06.183Z,35.83
2023-01-03T21:06:41.754Z,32.00
2023-01-03T21:08:35.296Z,31.00
2023-01-03T21:10:20.180Z,30.67
2023-01-03T21:11:53.392Z,35.15
2023-01-03T21:13:26.553Z,33.30
2023-01-03T21:15:01.119Z,29.75
2023-01-03T21:16:36.727Z,29.77
2023-01-03T21:18:11.352Z,25.63
2023-01-03T21:19:44.521Z,24.60
2023-01-03T21:21:20.409Z,23.15
2023-01-03T21:22:53.863Z,37.50
2023-01-03T21:24:27.078Z,33.58
2023-01-03T21:25:59.203Z,30.05
2023-01-03T21:27:32.260Z,24.00
2023-01-03T21:29:06.030Z,18.80
2023-01-03T21:30:41.856Z,19.05
2023-01-03T21:32:14.983Z,16.90
2023-01-03T21:33:48.430Z,23.48
2023-01-03T21:35:23.713Z,16.73
2023-01-03T21:36:57.465Z,14.77
2023-01-03T21:38:30.610Z,16.80
2023-01-03T21:40:04.013Z,14.43
2023-01-03T21:41:57.847Z,11.98
2023-01-03T21:43:30.119Z,15.02
2023-01-03T21:45:03.389Z,14.52
2023-01-03T21:46:37.921Z,14.15
2023-01-03T21:48:12.512Z,13.32
2023-01-03T21:49:45.799Z,14.40
2023-01-03T21:51:33.091Z,21.15
2023-01-03T21:53:06.825Z,18.25
2023-01-03T21:54:39.909Z,18.23
2023-01-03T21:56:20.664Z,13.43
2023-01-03T21:57:53.887Z,14.38
2023-01-03T21:59:27.262Z,15.13
2023-01-03T22:01:10.668Z,11.35
2023-01-03T22:03:03.724Z,12.43
2023-01-03T22:04:36.361Z,12.63
2023-01-03T22:06:11.550Z,12.85
2023-01-03T22:07:44.672Z,25.98
2023-01-03T22:09:31.790Z,35.40
2023-01-03T22:11:05.723Z,40.67
2023-01-03T22:12:38.866Z,34.30
2023-01-03T22:14:12.043Z,33.67
2023-01-03T22:15:45.388Z,43.50
2023-01-03T22:17:18.824Z,17.67
2023-01-03T22:18:53.873Z,44.85
2023-01-03T22:20:30.939Z,44.75
2023-01-03T22:22:08.183Z,27.83
2023-01-03T22:23:41.755Z,20.52
2023-01-03T22:25:16.799Z,23.27
2023-01-03T22:26:49.925Z,25.83
2023-01-03T22:28:25.470Z,20.15
2023-01-03T22:29:58.786Z,42.72
2023-01-03T22:31:32.014Z,42.00
2023-01-03T22:33:05.227Z,36.10
2023-01-03T22:34:40.658Z,35.72
2023-01-03T22:36:15.080Z,28.60
2023-01-03T22:37:48.296Z,32.15
2023-01-03T22:39:21.446Z,38.95
2023-01-03T22:40:54.798Z,31.15
2023-01-03T22:42:28.072Z,25.70
2023-01-03T22:44:00.242Z,26.13
2023-01-03T22:45:33.361Z,23.90
2023-01-03T22:47:06.816Z,21.50
2023-01-03T22:48:40.223Z,20.25
2023-01-03T22:50:14.879Z,17.48
2023-01-03T22:51:48.067Z,19.25
2023-01-03T22:53:21.353Z,20.55
2023-01-03T22:54:54.851Z,19.17
2023-01-03T22:56:28.070Z,20.45
2023-01-03T22:58:01.357Z,14.43
2023-01-03T22:59:34.708Z,18.38
2023-01-03T23:01:08.897Z,19.35
2023-01-03T23:02:42.544Z,18.30
2023-01-03T23:04:14.852Z,16.60
2023-01-03T23:05:49.540Z,17.77
2023-01-03T23:07:22.837Z,17.25
2023-01-03T23:08:56.531Z,19.75
2023-01-03T23:10:30.204Z,19.60
2023-01-03T23:12:20.509Z,35.33
2023-01-03T23:13:52.686Z,36.72
2023-01-03T23:15:26.135Z,21.80
2023-01-03T23:17:19.804Z,25.85
2023-01-03T23:18:52.088Z,18.27
2023-01-03T23:20:27.733Z,12.50
2023-01-03T23:22:02.380Z,13.57
2023-01-03T23:23:35.509Z,12.43
2023-01-03T23:25:09.329Z,11.23
2023-01-03T23:26:42.895Z,15.57
2023-01-03T23:28:16.465Z,12.10
2023-01-03T23:29:49.558Z,13.27
2023-01-03T23:31:23.122Z,13.55
2023-01-03T23:32:56.997Z,12.65
2023-01-03T23:34:29.283Z,13.50
2023-01-03T23:36:05.647Z,15.43
2023-01-03T23:37:40.480Z,10.80
2023-01-03T23:39:14.226Z,11.48
2023-01-03T23:40:47.429Z,13.20
2023-01-03T23:42:20.885Z,13.32
2023-01-03T23:43:55.212Z,14.25
2023-01-03T23:45:28.409Z,15.07
2023-01-03T23:47:06.231Z,14.70
2023-01-03T23:48:42.648Z,12.88
2023-01-03T23:50:15.981Z,12.82
2023-01-03T23:51:49.159Z,18.48
2023-01-03T23:53:23.691Z,25.52
2023-01-03T23:55:01.626Z,22.52
2023-01-03T23:56:38.808Z,13.13
2023-01-03T23:58:12.072Z,17.23
2023-01-03T23:59:45.348Z,17.63
